Flight Track Log - Related Links

Times and Time Zones

All times are in EDT time to prevent confusion due to time zone crossing. See the FIN666 flight status page for this flight to view local times or setup timezone preferences in your user account.

Time Position Orientation Groundspeed Altitude Reporting Facility
EDT Latitude Longitude Course Direction KTS MPH feet Rate Location/Type
Sun 07:49:00 AM 55.8668 13.1710 49° Northeast  Level Estimated
Sun 07:50:00 AM 55.9493 13.3441 50° Northeast  Level Estimated
Sun 07:51:00 AM 56.0316 13.5180 50° Northeast  Level Estimated
Sun 07:52:00 AM 56.1136 13.6925 50° Northeast  Level Estimated
Sun 07:53:00 AM 56.1941 13.8652 50° Northeast  Level Estimated
Sun 07:54:00 AM 56.2743 14.0385 50° Northeast  Level Estimated
Sun 07:55:00 AM 56.3543 14.2125 50° Northeast  Level Estimated
Sun 07:56:00 AM 56.4340 14.3873 50° Northeast  Level Estimated
Sun 07:57:00 AM 56.5135 14.5628 51° Northeast  Level Estimated
Sun 07:58:00 AM 56.5941 14.7419 51° Northeast  Level Estimated
Sun 07:59:00 AM 56.6743 14.9217 51° Northeast  Level Estimated
Sun 08:00:00 AM 56.7543 15.1023 51° Northeast  Level Estimated
Sun 08:01:00 AM 56.8340 15.2837 51° Northeast  Level Estimated
Sun 08:02:00 AM 56.9148 15.4688 51° Northeast  Level Estimated
Sun 08:03:00 AM 56.9953 15.6546 51° Northeast  Level Estimated
Sun 08:04:00 AM 57.0755 15.8413 52° Northeast  Level Estimated
Sun 08:05:00 AM 57.1554 16.0288 52° Northeast  Level Estimated
Sun 08:06:00 AM 57.2350 16.2171 52° Northeast  Level Estimated
Sun 08:07:00 AM 57.3144 16.4062 52° Northeast  Level Estimated
Sun 08:08:00 AM 57.3934 16.5962 52° Northeast  Level Estimated
Sun 08:09:00 AM 57.4722 16.7869 52° Northeast  Level Estimated
Sun 08:10:00 AM 57.5507 16.9785 53° Northeast  Level Estimated
Sun 08:11:00 AM 57.6289 17.1709 53° Northeast  Level Estimated
Sun 08:12:00 AM 57.7068 17.3641 53° Northeast  Level Estimated
Sun 08:13:00 AM 57.7844 17.5582 53° Northeast  Level Estimated
Sun 08:14:00 AM 57.8617 17.7531 53° Northeast  Level Estimated
Sun 08:15:00 AM 57.9387 17.9488 53° Northeast  Level Estimated
Sun 08:16:00 AM 58.0154 18.1454 54° Northeast  Level Estimated
Sun 08:17:00 AM 58.0919 18.3428 54° Northeast  Level Estimated
Sun 08:18:00 AM 58.1680 18.5411 54° Northeast  Level Estimated
Sun 08:19:00 AM 58.2438 18.7402 54° Northeast  Level Estimated
Sun 08:20:00 AM 58.3192 18.9401 54° Northeast  Level Estimated
Sun 08:21:00 AM 58.3944 19.1410 54° Northeast  Level Estimated
Sun 08:22:00 AM 58.4692 19.3426 55° Northeast  Level Estimated
Sun 08:23:00 AM 58.5438 19.5452 55° Northeast  Level Estimated
Sun 08:24:00 AM 58.6180 19.7486 55° Northeast  Level Estimated
Sun 08:25:00 AM 58.6919 19.9528 55° Northeast  Level Estimated
Sun 08:26:00 AM 58.7655 20.1579 55° Northeast  Level Estimated
Sun 08:27:00 AM 58.8387 20.3639 55° Northeast  Level Estimated
Sun 08:28:00 AM 58.9116 20.5708 56° Northeast  Level Estimated
Sun 08:29:00 AM 58.9842 20.7785 56° Northeast  Level Estimated
Sun 08:30:00 AM 59.0564 20.9871 56° Northeast  Level Estimated
Sun 08:31:00 AM 59.1283 21.1966 56° Northeast  Level Estimated
Sun 08:32:00 AM 59.1999 21.4070 56° Northeast  Level Estimated
Sun 08:33:00 AM 59.2711 21.6182 57° Northeast  Level Estimated
Sun 08:34:00 AM 59.3420 21.8303 57° Northeast  Level Estimated
Sun 08:35:00 AM 59.4126 22.0434 57° Northeast  Level Estimated
Sun 08:36:00 AM 59.4828 22.2573 57° Northeast  Level Estimated
Sun 08:37:00 AM 59.5526 22.4720 57° Northeast  Level Estimated
Sun 08:38:00 AM 59.6221 22.6877 57° Northeast  Level Estimated
Sun 08:39:00 AM 59.6912 22.9043 58° Northeast  Level Estimated
Sun 08:40:00 AM 59.7600 23.1218 58° Northeast  Level Estimated
Sun 08:41:00 AM 59.8284 23.3401 58° Northeast  Level Estimated
Sun 08:42:00 AM 59.8965 23.5594 58° Northeast  Level Estimated
Sun 08:43:00 AM 59.9641 23.7796 58° Northeast  Level Estimated
Sun 08:44:00 AM 60.0315 24.0006 59° Northeast  Level Estimated
Sun 08:45:00 AM 60.0984 24.2226 59° Northeast  Level Estimated
Sun 08:46:00 AM 60.1650 24.4454 59° Northeast  Level Estimated
Sun 08:47:00 AM 60.2312 24.6692 59° Northeast  Level Estimated
Sun 08:48:00 AM 60.2970 24.8938 59° Northeast  Level Estimated
Sun 08:49:00 AM 60.3172 24.9633 60° Northeast  Level Estimated
Sun 08:50:00 AM 60.3172 24.9633 North  Level Estimated
Sun 08:51:00 AM 60.3172 24.9633 North  Level Estimated
Sun 08:52:00 AM 60.3172 24.9633 North  Level Estimated
Sun 08:53:00 AM 60.3172 24.9633 North  Level Estimated
Sun 08:54:00 AM 60.3172 24.9633 North  Level Estimated
Sun 08:55:00 AM 60.3172 24.9633 North  Level Estimated
Sun 08:56:00 AM 60.3172 24.9633 North  Level Estimated
Sun 08:57:00 AM 60.3172 24.9633 North  Level Estimated
Sun 08:58:00 AM 60.3172 24.9633 North  Level Estimated
Sun 08:59:00 AM 60.3172 24.9633 North  Level Estimated
Sun 09:00:00 AM 60.3172 24.9633 North  Level Estimated
Sun 09:01:00 AM 60.3172 24.9633 North  Level Estimated
Sun 09:02:00 AM 60.3172 24.9633 North  Level Estimated
Sun 09:03:00 AM 60.3172 24.9633 North  Level Estimated
Sun 09:04:00 AM 60.3172 24.9633 North  Level Estimated

Login

Don't have an account? Register now (free) for customized features, flight alerts, and more!